Davis Monthan Air Force Base
KDMA : now visible

Airfield :











YOU CAN JOIN US ON...

 
LOGIN :

Register | Disclaimer

   EN    FR    IT 

 









Legend :    VFR   Marginal VFR   IFR   Intensive IFR   Very Intensive IFR
Visi :
Ceiling :
>= 8 km
>= 3000ft
5 to 8 km
1000 to 3000 ft
1500m to 5 km
500 to 1000 ft
800 to 1500m
200 to 500 ft
< 800m
< 200 ft
Symbols :   Thunderstorms  Fog  Heavy snow  Heavy precipitations  Wind > 20 kt






- Airport Elevation : 2704 ft


KDMA - Davis Monthan Air Force Base

CURRENT METAR :
  • 172158Z AUTO 31005KT 10SM CLR 22/M01 A2988 RMK AO2 SLP095 T02231011 FZRANO $

EXPIRED METARs :
  • 172058Z AUTO 33004KT 10SM CLR 22/M02 A2989 RMK AO2 SLP099 T02191021 57030 FZRANO $
  • 171958Z AUTO 30005KT 10SM CLR 21/M04 A2993 RMK AO2 SLP113 T02081037 FZRANO $

TAF TAF KDMA
Valid from the 17 at 22:00 until the 19 at 04:00 UTC


172200Z 1722/1904 30009KT 9999 SKC QNH2988INS
BECMG 1803/1804 17006KT 9999 SKC QNH2993INS
BECMG 1821/1822 29006KT 9999 SKC QNH2997INS TX22/1722Z TN06/1813Z



MET'MAP, your aeronautical weather chart ! - Copyright ORBIFLY December 2007 - Disclaimer

ORBIFLY MET'MAP TEAM :

Programming & Development : Alexandra Zaïnal
Concept & original design : Baudouin d'Aumeries
Assistance for programming : Marc-Olivier Méhu
Technical & hardware support : Manuel Goepfert

Contact : metmap@orbifly.com




SOURCES & CREDITS :

   NOAA       Earth
Advisory